createdAt,value
2023-02-23T06:04:17.684Z,4.70
2023-02-23T06:09:21.340Z,4.70
2023-02-23T06:14:24.931Z,4.70
2023-02-23T06:19:31.711Z,4.80
2023-02-23T06:24:35.440Z,4.80
2023-02-23T06:29:39.221Z,4.80
2023-02-23T06:34:44.868Z,4.90
2023-02-23T06:44:54.065Z,4.80
2023-02-23T06:49:59.909Z,4.80
2023-02-23T06:55:03.564Z,4.80
2023-02-23T07:00:08.417Z,4.80
2023-02-23T07:05:13.429Z,4.70
2023-02-23T07:10:17.280Z,4.70
2023-02-23T07:15:20.904Z,4.80
2023-02-23T07:20:25.929Z,4.80
2023-02-23T07:25:29.681Z,4.80
2023-02-23T07:30:33.418Z,4.80
2023-02-23T07:35:38.499Z,4.80
2023-02-23T07:40:42.168Z,4.90
2023-02-23T07:45:46.862Z,5.00
2023-02-23T07:50:52.009Z,4.90
2023-02-23T07:55:58.961Z,5.00
2023-02-23T08:01:02.668Z,5.10
2023-02-23T08:06:08.179Z,5.10
2023-02-23T08:11:12.157Z,5.20
2023-02-23T08:16:16.528Z,5.20
2023-02-23T08:21:21.827Z,5.30
2023-02-23T08:26:25.746Z,5.30
2023-02-23T08:31:29.502Z,5.40
2023-02-23T08:36:34.587Z,5.60
2023-02-23T08:41:38.288Z,5.50
2023-02-23T08:46:41.920Z,5.50
2023-02-23T08:51:47.465Z,5.50
2023-02-23T08:56:51.078Z,5.50
2023-02-23T09:01:54.761Z,5.50
2023-02-23T09:06:59.814Z,5.60
2023-02-23T09:12:03.454Z,5.70
2023-02-23T09:17:07.113Z,5.80
2023-02-23T09:22:12.292Z,5.90
2023-02-23T09:27:15.948Z,5.80
2023-02-23T09:32:19.697Z,5.80
2023-02-23T09:37:25.192Z,6.00
2023-02-23T09:42:41.240Z,6.10
2023-02-23T09:47:57.885Z,6.30
2023-02-23T09:53:06.723Z,6.40
2023-02-23T09:58:20.893Z,6.60
2023-02-23T10:03:28.649Z,6.70
2023-02-23T10:08:44.477Z,6.80
2023-02-23T10:13:57.412Z,6.90
2023-02-23T10:19:08.681Z,7.00
2023-02-23T10:24:19.445Z,7.30
2023-02-23T10:29:27.997Z,7.30
2023-02-23T10:34:32.526Z,7.30
2023-02-23T10:39:37.965Z,7.60
2023-02-23T10:44:44.606Z,7.70
2023-02-23T10:49:49.968Z,7.80
2023-02-23T10:54:54.983Z,7.80
2023-02-23T11:00:32.932Z,7.90
2023-02-23T11:05:44.466Z,8.00
2023-02-23T11:11:20.386Z,8.00
2023-02-23T11:16:25.564Z,8.10
2023-02-23T11:21:33.468Z,8.10
2023-02-23T11:26:42.310Z,8.20
2023-02-23T11:31:51.036Z,8.30
2023-02-23T11:37:02.728Z,8.30
2023-02-23T11:42:20.004Z,8.30
2023-02-23T11:47:26.072Z,8.20
2023-02-23T11:52:31.381Z,8.30
2023-02-23T11:57:37.658Z,8.30
2023-02-23T12:02:50.939Z,8.40
2023-02-23T12:08:00.941Z,8.50
2023-02-23T12:13:18.128Z,8.70
2023-02-23T12:18:38.421Z,8.90
2023-02-23T12:23:48.339Z,9.10
2023-02-23T12:28:59.723Z,9.30
2023-02-23T12:34:11.101Z,9.40
2023-02-23T12:39:22.497Z,9.40
2023-02-23T12:44:36.246Z,9.40
2023-02-23T12:49:45.560Z,9.50
2023-02-23T12:54:49.885Z,9.60
2023-02-23T13:00:30.939Z,9.60
2023-02-23T13:05:39.625Z,9.60
2023-02-23T13:10:49.452Z,9.60
2023-02-23T13:16:02.683Z,9.70
2023-02-23T13:21:14.161Z,9.80
2023-02-23T13:26:29.386Z,9.90
2023-02-23T13:31:36.942Z,9.90
2023-02-23T13:36:42.079Z,10.00
2023-02-23T13:41:51.607Z,10.00
2023-02-23T13:47:01.508Z,10.00
2023-02-23T13:52:20.716Z,10.10
2023-02-23T13:57:25.306Z,10.10
2023-02-23T14:02:40.897Z,10.10
2023-02-23T14:07:48.077Z,10.00
2023-02-23T14:13:24.924Z,10.00
2023-02-23T14:18:55.423Z,9.90
2023-02-23T14:24:15.432Z,9.90
2023-02-23T14:29:25.675Z,9.80
2023-02-23T14:34:51.858Z,9.70
2023-02-23T14:39:57.994Z,9.70
2023-02-23T14:45:06.888Z,9.60
2023-02-23T14:50:26.481Z,9.50
2023-02-23T14:55:35.307Z,9.40
2023-02-23T15:00:44.082Z,9.40
2023-02-23T15:05:53.770Z,9.30
2023-02-23T15:11:03.170Z,9.20
2023-02-23T15:16:10.080Z,9.10
2023-02-23T15:21:19.545Z,9.50
2023-02-23T15:26:32.127Z,9.00
2023-02-23T15:31:36.981Z,9.00
2023-02-23T15:36:44.215Z,8.80
2023-02-23T15:41:50.069Z,8.80
2023-02-23T15:46:57.053Z,8.70
2023-02-23T15:52:04.674Z,8.70
2023-02-23T15:57:17.416Z,8.70
2023-02-23T16:02:24.641Z,8.70
2023-02-23T16:07:38.248Z,8.70
2023-02-23T16:12:45.513Z,8.70
2023-02-23T16:17:53.053Z,8.70
2023-02-23T16:22:59.424Z,8.70
2023-02-23T16:28:05.787Z,8.70
2023-02-23T16:33:18.922Z,8.70
2023-02-23T16:38:28.183Z,8.80
2023-02-23T16:43:32.838Z,8.70
2023-02-23T16:48:36.830Z,8.70
2023-02-23T16:53:41.971Z,8.70
2023-02-23T16:58:48.429Z,8.70
2023-02-23T17:03:54.014Z,8.70
2023-02-23T17:08:59.080Z,8.80
2023-02-23T17:14:02.775Z,8.80
2023-02-23T17:19:07.446Z,8.80
2023-02-23T17:24:12.619Z,8.80
2023-02-23T17:29:17.072Z,8.80
2023-02-23T17:34:20.516Z,8.80
2023-02-23T17:39:28.177Z,8.90
2023-02-23T17:44:32.407Z,8.80
2023-02-23T17:49:36.125Z,8.80
2023-02-23T17:54:41.251Z,8.80
2023-02-23T17:59:44.958Z,8.80
2023-02-23T18:04:49.335Z,8.90
2023-02-23T18:09:54.192Z,8.80
2023-02-23T18:14:57.901Z,8.90
2023-02-23T18:20:01.627Z,8.90
2023-02-23T18:25:07.854Z,9.00
2023-02-23T18:30:13.015Z,9.00
2023-02-23T18:35:16.858Z,9.00
2023-02-23T18:40:23.963Z,9.00
2023-02-23T18:45:28.587Z,9.10
2023-02-23T18:50:32.024Z,9.10
2023-02-23T18:55:38.120Z,9.10
2023-02-23T19:00:42.908Z,9.10
2023-02-23T19:05:50.140Z,9.20
2023-02-23T19:10:55.255Z,9.20
2023-02-23T19:15:59.819Z,9.10
2023-02-23T19:21:03.502Z,9.20
2023-02-23T19:26:08.760Z,9.10
2023-02-23T19:31:15.957Z,9.10
2023-02-23T19:36:26.155Z,9.20
2023-02-23T19:41:31.210Z,9.20
2023-02-23T19:46:35.244Z,9.20
2023-02-23T19:51:39.010Z,9.20
2023-02-23T19:56:44.664Z,9.20
2023-02-23T20:01:51.498Z,9.20
2023-02-23T20:06:55.243Z,9.20
2023-02-23T20:12:00.175Z,9.20
2023-02-23T20:17:05.490Z,9.20
2023-02-23T20:22:09.907Z,9.20
2023-02-23T20:27:14.854Z,9.20
2023-02-23T20:32:19.037Z,9.20
2023-02-23T20:37:22.736Z,9.20
2023-02-23T20:42:28.712Z,9.20
2023-02-23T20:47:32.489Z,9.20
2023-02-23T20:52:36.082Z,9.20
2023-02-23T20:57:41.414Z,9.20
2023-02-23T21:02:45.175Z,9.20
2023-02-23T21:07:49.390Z,9.20
2023-02-23T21:12:56.052Z,9.20
2023-02-23T21:18:00.482Z,9.20
2023-02-23T21:23:04.229Z,9.20
2023-02-23T21:28:09.405Z,9.30
2023-02-23T21:33:13.065Z,9.20
2023-02-23T21:38:16.653Z,9.20
2023-02-23T21:43:22.053Z,9.20
2023-02-23T21:48:25.981Z,9.20
2023-02-23T21:53:29.604Z,9.20
2023-02-23T21:58:34.679Z,9.20
2023-02-23T22:03:38.285Z,9.20
2023-02-23T22:08:43.105Z,9.30
2023-02-23T22:13:49.713Z,9.20
2023-02-23T22:18:54.028Z,9.30
2023-02-23T22:23:57.661Z,9.30
2023-02-23T22:29:02.678Z,9.20
2023-02-23T22:34:07.306Z,9.20
2023-02-23T22:39:12.999Z,9.10
2023-02-23T22:44:20.355Z,9.10
2023-02-23T22:49:24.487Z,9.10
2023-02-23T22:54:28.178Z,9.10
2023-02-23T22:59:33.271Z,9.10
2023-02-23T23:04:37.792Z,9.20
2023-02-23T23:09:41.437Z,9.20
2023-02-23T23:14:47.348Z,9.20
2023-02-23T23:19:51.064Z,9.20
2023-02-23T23:24:55.054Z,9.20
2023-02-23T23:30:00.009Z,9.20
